createdAt,value
2022-07-27T00:01:09.295Z,79.50
2022-07-27T00:03:38.495Z,80.70
2022-07-27T00:06:07.098Z,79.70
2022-07-27T00:08:35.662Z,79.30
2022-07-27T00:11:04.011Z,79.20
2022-07-27T00:13:34.011Z,79.10
2022-07-27T00:16:02.222Z,79.50
2022-07-27T00:18:30.634Z,79.60
2022-07-27T00:20:58.746Z,80.00
2022-07-27T00:23:27.175Z,80.10
2022-07-27T00:25:55.424Z,80.60
2022-07-27T00:28:23.547Z,80.70
2022-07-27T00:30:53.238Z,81.20
2022-07-27T00:33:21.309Z,81.10
2022-07-27T00:35:49.395Z,81.30
2022-07-27T00:38:17.599Z,81.60
2022-07-27T00:40:45.682Z,81.50
2022-07-27T00:43:15.278Z,81.90
2022-07-27T00:45:43.518Z,82.10
2022-07-27T00:48:12.967Z,82.70
2022-07-27T00:50:43.909Z,82.60
2022-07-27T00:53:14.211Z,82.60
2022-07-27T00:55:42.438Z,83.00
2022-07-27T00:58:10.805Z,83.20
2022-07-27T01:00:39.876Z,83.10
2022-07-27T01:03:08.707Z,83.00
2022-07-27T01:05:42.790Z,83.20
2022-07-27T01:08:14.109Z,83.30
2022-07-27T01:10:43.161Z,83.40
2022-07-27T01:13:12.911Z,83.60
2022-07-27T01:15:42.664Z,83.50
2022-07-27T01:18:13.657Z,84.00
2022-07-27T01:20:43.302Z,83.90
2022-07-27T01:23:12.762Z,84.00
2022-07-27T01:25:43.003Z,84.40
2022-07-27T01:28:11.344Z,84.60
2022-07-27T01:30:39.541Z,84.70
2022-07-27T01:33:09.336Z,85.00
2022-07-27T01:35:38.872Z,85.00
2022-07-27T01:38:07.821Z,85.40
2022-07-27T01:40:39.665Z,85.40
2022-07-27T01:43:08.277Z,85.40
2022-07-27T01:45:36.791Z,85.60
2022-07-27T01:48:05.379Z,85.80
2022-07-27T01:50:33.784Z,85.60
2022-07-27T01:53:02.203Z,86.40
2022-07-27T01:55:38.505Z,86.70
2022-07-27T01:58:09.174Z,86.80
2022-07-27T02:00:37.887Z,87.00
2022-07-27T02:03:08.041Z,86.90
2022-07-27T02:05:37.243Z,87.20
2022-07-27T02:08:06.352Z,87.70
2022-07-27T02:10:35.514Z,88.00
2022-07-27T02:13:02.719Z,87.90
2022-07-27T02:15:54.571Z,88.10
2022-07-27T02:18:35.831Z,89.00
2022-07-27T02:21:06.331Z,88.70
2022-07-27T02:23:35.018Z,89.00
2022-07-27T02:26:03.262Z,89.20
2022-07-27T02:28:31.453Z,89.30
2022-07-27T02:31:01.074Z,89.50
2022-07-27T02:33:29.584Z,90.00
2022-07-27T02:35:57.705Z,90.10
2022-07-27T02:38:26.043Z,90.30
2022-07-27T02:40:54.285Z,90.40
2022-07-27T02:43:23.053Z,90.50
2022-07-27T02:45:51.494Z,90.70
2022-07-27T02:48:21.719Z,90.60
2022-07-27T02:50:49.834Z,90.70
2022-07-27T02:53:17.952Z,90.90
2022-07-27T02:55:46.288Z,91.00
2022-07-27T02:58:14.565Z,91.00
2022-07-27T03:00:42.637Z,91.10
2022-07-27T03:03:10.773Z,90.90
2022-07-27T03:05:40.432Z,91.00
2022-07-27T03:08:08.519Z,91.00
2022-07-27T03:10:36.982Z,91.10
2022-07-27T03:13:05.228Z,91.20
2022-07-27T03:15:37.209Z,91.30
2022-07-27T03:18:05.442Z,91.60
2022-07-27T03:20:33.994Z,91.70
2022-07-27T03:23:03.419Z,91.60
2022-07-27T03:25:31.762Z,91.70
2022-07-27T03:28:04.423Z,91.80
2022-07-27T03:30:33.202Z,91.90
2022-07-27T03:33:01.562Z,92.00
2022-07-27T03:35:30.506Z,92.00
2022-07-27T03:37:58.684Z,92.00
2022-07-27T03:40:29.643Z,92.00
2022-07-27T03:42:58.109Z,92.00
2022-07-27T03:45:26.543Z,92.00
2022-07-27T03:47:55.367Z,92.10
2022-07-27T03:50:23.718Z,92.20
2022-07-27T03:52:52.610Z,92.30
2022-07-27T03:55:20.990Z,92.40
2022-07-27T03:57:52.471Z,92.40
2022-07-27T04:00:21.353Z,92.50
2022-07-27T04:02:49.603Z,92.50
2022-07-27T04:05:17.808Z,92.70
2022-07-27T04:07:46.121Z,92.80
2022-07-27T04:10:14.536Z,92.80
2022-07-27T04:12:43.343Z,93.00
2022-07-27T04:15:16.777Z,93.00
2022-07-27T04:17:54.704Z,93.00
2022-07-27T04:20:26.165Z,93.20
2022-07-27T04:22:54.412Z,93.50
2022-07-27T04:25:23.271Z,93.60
2022-07-27T04:27:54.541Z,93.80
2022-07-27T04:30:24.944Z,93.90
2022-07-27T04:32:53.433Z,93.90
2022-07-27T04:35:26.380Z,93.60
2022-07-27T04:37:58.279Z,93.70
2022-07-27T04:40:31.238Z,93.70
2022-07-27T04:42:59.357Z,93.80
2022-07-27T04:45:29.447Z,93.80
2022-07-27T04:47:57.860Z,93.80
2022-07-27T04:50:26.114Z,93.70
2022-07-27T04:52:54.284Z,93.50
2022-07-27T04:55:22.550Z,93.80
2022-07-27T04:57:51.239Z,93.80
2022-07-27T05:00:20.020Z,93.90
2022-07-27T05:02:49.569Z,93.90
2022-07-27T05:05:17.682Z,93.90
2022-07-27T05:07:47.635Z,94.00
2022-07-27T05:10:20.104Z,94.20
2022-07-27T05:12:49.447Z,94.10
2022-07-27T05:15:18.090Z,94.00
2022-07-27T05:17:46.355Z,94.00
2022-07-27T05:20:16.280Z,94.10
2022-07-27T05:22:44.590Z,94.00
2022-07-27T05:25:12.899Z,94.00
2022-07-27T05:27:54.225Z,94.20
2022-07-27T05:30:27.225Z,94.40
2022-07-27T05:33:03.277Z,94.60
2022-07-27T05:35:33.773Z,94.70
2022-07-27T05:38:02.627Z,94.90
2022-07-27T05:40:33.994Z,95.20
2022-07-27T05:43:05.348Z,95.60
2022-07-27T05:45:34.464Z,95.80
2022-07-27T05:48:03.149Z,96.00
2022-07-27T05:50:32.670Z,96.30
2022-07-27T05:53:01.193Z,96.60
2022-07-27T05:55:33.525Z,96.90
2022-07-27T05:58:02.441Z,97.00
2022-07-27T06:00:30.870Z,97.10
2022-07-27T06:02:59.191Z,97.30
2022-07-27T06:05:27.622Z,97.50
2022-07-27T06:07:59.777Z,97.50
2022-07-27T06:10:32.644Z,97.50
2022-07-27T06:13:02.736Z,97.40
2022-07-27T06:15:31.064Z,97.40
2022-07-27T06:17:59.411Z,97.20
2022-07-27T06:20:28.300Z,97.20
2022-07-27T06:23:03.233Z,97.10
2022-07-27T06:25:37.174Z,97.40
2022-07-27T06:28:05.776Z,97.30
2022-07-27T06:30:35.226Z,97.40
2022-07-27T06:33:06.289Z,97.40
2022-07-27T06:35:38.317Z,97.10
2022-07-27T06:38:09.616Z,97.20
2022-07-27T06:40:38.244Z,97.10
2022-07-27T06:43:06.936Z,97.30
2022-07-27T06:45:35.121Z,96.90
2022-07-27T06:48:03.656Z,96.80
2022-07-27T06:50:31.997Z,96.30
2022-07-27T06:53:03.758Z,96.30
2022-07-27T06:55:33.456Z,96.10
2022-07-27T06:58:02.055Z,96.00
2022-07-27T07:00:30.599Z,95.60
2022-07-27T07:03:00.773Z,95.20
2022-07-27T07:05:29.161Z,94.90
2022-07-27T07:07:58.433Z,94.80
2022-07-27T07:10:27.712Z,94.90
2022-07-27T07:13:05.006Z,94.80
2022-07-27T07:15:38.039Z,95.00
2022-07-27T07:18:06.834Z,94.90
2022-07-27T07:20:41.883Z,94.80
2022-07-27T07:23:12.518Z,94.80
2022-07-27T07:25:41.844Z,94.00
2022-07-27T07:28:11.436Z,94.00
2022-07-27T07:30:39.573Z,93.60
2022-07-27T07:33:07.871Z,93.50
2022-07-27T07:35:38.650Z,92.90
2022-07-27T07:38:26.803Z,92.60
2022-07-27T07:40:55.080Z,92.60
2022-07-27T07:43:27.547Z,91.90
2022-07-27T07:45:56.370Z,91.30
2022-07-27T07:48:25.376Z,91.20
2022-07-27T07:50:54.765Z,89.90
2022-07-27T07:53:24.859Z,89.90
2022-07-27T07:55:53.639Z,89.10
2022-07-27T07:58:21.844Z,88.90
2022-07-27T08:00:51.803Z,88.60
2022-07-27T08:03:20.415Z,88.50
2022-07-27T08:05:49.233Z,88.70
2022-07-27T08:08:54.453Z,88.30
2022-07-27T08:11:24.215Z,88.40
2022-07-27T08:13:52.907Z,87.70
2022-07-27T08:16:22.924Z,87.30
2022-07-27T08:18:51.320Z,87.90
2022-07-27T08:21:19.797Z,86.40
2022-07-27T08:23:48.022Z,86.90
2022-07-27T08:26:18.322Z,86.20
2022-07-27T08:28:46.674Z,86.60
2022-07-27T08:31:18.925Z,87.30
2022-07-27T08:33:54.562Z,87.30
2022-07-27T08:36:22.910Z,84.30
2022-07-27T08:38:51.718Z,85.50
2022-07-27T08:41:23.505Z,87.00
2022-07-27T08:43:51.727Z,86.30
2022-07-27T08:46:20.241Z,85.70
2022-07-27T08:48:49.301Z,82.60
2022-07-27T08:51:19.667Z,80.10
2022-07-27T08:53:52.335Z,80.00
2022-07-27T08:56:21.881Z,80.50
2022-07-27T08:58:50.112Z,80.70
2022-07-27T09:01:19.030Z,81.20
2022-07-27T09:03:48.393Z,81.80
2022-07-27T09:06:53.146Z,81.30
2022-07-27T09:09:23.503Z,79.10
2022-07-27T09:12:07.067Z,78.30
2022-07-27T09:14:37.813Z,76.10
2022-07-27T09:20:18.440Z,76.50
2022-07-27T09:22:52.296Z,75.70
2022-07-27T09:25:44.912Z,76.80
2022-07-27T09:28:11.546Z,77.30
2022-07-27T09:30:43.748Z,77.40
2022-07-27T09:33:12.454Z,78.40
2022-07-27T09:35:41.363Z,78.80
2022-07-27T09:38:20.628Z,78.80
2022-07-27T09:40:49.929Z,79.10
2022-07-27T09:44:05.445Z,79.40
2022-07-27T09:46:10.738Z,79.40
2022-07-27T09:48:39.505Z,79.90
2022-07-27T09:51:55.754Z,78.70
2022-07-27T09:54:07.491Z,77.70
2022-07-27T09:56:36.042Z,75.80
2022-07-27T09:59:05.214Z,76.20
2022-07-27T10:01:35.712Z,76.20
2022-07-27T10:04:07.537Z,76.80
2022-07-27T10:07:01.239Z,75.80
2022-07-27T10:09:27.536Z,76.20
2022-07-27T10:11:57.270Z,75.70
2022-07-27T10:14:26.166Z,76.20
2022-07-27T10:16:56.481Z,77.10
2022-07-27T10:19:29.318Z,77.30
2022-07-27T10:21:57.980Z,77.20
2022-07-27T10:24:32.282Z,77.00
2022-07-27T10:27:00.741Z,76.40
2022-07-27T10:29:29.844Z,76.00
2022-07-27T10:32:01.101Z,75.70
2022-07-27T10:34:38.018Z,75.00
2022-07-27T10:37:11.569Z,74.30
2022-07-27T10:39:44.437Z,74.60
2022-07-27T10:42:25.494Z,74.60
2022-07-27T10:45:12.506Z,74.40
2022-07-27T10:47:47.743Z,73.80
2022-07-27T10:50:30.247Z,74.00
2022-07-27T10:53:11.137Z,73.40
2022-07-27T10:55:49.266Z,73.20
2022-07-27T10:58:51.937Z,72.40
2022-07-27T11:01:22.644Z,72.10
2022-07-27T11:03:53.715Z,71.50
2022-07-27T11:06:48.176Z,71.80
2022-07-27T11:12:06.994Z,71.70
2022-07-27T11:14:46.901Z,71.50
2022-07-27T11:20:05.333Z,72.50
2022-07-27T11:25:24.742Z,72.80
2022-07-27T11:27:54.222Z,72.30
2022-07-27T11:30:23.945Z,71.60
2022-07-27T11:32:52.322Z,71.30
2022-07-27T11:35:20.819Z,71.30
2022-07-27T11:38:01.238Z,71.10
2022-07-27T11:43:38.434Z,70.20
2022-07-27T11:46:18.989Z,68.80
2022-07-27T11:49:11.879Z,70.00
2022-07-27T11:51:43.213Z,70.40
2022-07-27T11:54:21.873Z,67.80
2022-07-27T11:56:52.539Z,68.70
2022-07-27T11:59:22.785Z,68.30
2022-07-27T12:01:54.163Z,68.40
2022-07-27T12:04:27.577Z,67.60
2022-07-27T12:07:02.169Z,68.10
2022-07-27T12:09:38.214Z,68.40
2022-07-27T12:12:13.989Z,67.70
2022-07-27T12:14:52.164Z,66.70
2022-07-27T12:17:28.985Z,66.70
2022-07-27T12:20:00.318Z,66.10
2022-07-27T12:22:34.509Z,66.30
2022-07-27T12:25:10.027Z,66.00
2022-07-27T12:27:56.473Z,66.00
2022-07-27T12:30:32.878Z,66.10
2022-07-27T12:33:01.785Z,66.10
2022-07-27T12:35:38.143Z,66.50
2022-07-27T12:38:14.224Z,66.70
2022-07-27T12:40:48.475Z,65.70
2022-07-27T12:43:22.456Z,65.40
2022-07-27T12:45:56.942Z,64.50
2022-07-27T12:48:27.877Z,64.60
2022-07-27T12:51:00.757Z,64.50
2022-07-27T12:53:29.921Z,65.20
2022-07-27T12:56:00.092Z,64.90
2022-07-27T12:58:28.606Z,64.60
2022-07-27T13:00:58.502Z,63.90
2022-07-27T13:03:26.790Z,63.80
2022-07-27T13:05:55.249Z,63.70
2022-07-27T13:08:23.979Z,63.00
2022-07-27T13:10:53.139Z,62.80
2022-07-27T13:13:24.981Z,63.60
2022-07-27T13:15:56.567Z,63.50
2022-07-27T13:18:26.130Z,63.80
2022-07-27T13:20:54.337Z,63.90
2022-07-27T13:23:22.886Z,63.60
2022-07-27T13:25:52.049Z,63.60
2022-07-27T13:28:20.242Z,63.70
2022-07-27T13:30:48.838Z,63.50
2022-07-27T13:33:17.080Z,64.00
2022-07-27T13:35:47.690Z,63.70
2022-07-27T13:38:28.753Z,63.80
2022-07-27T13:40:57.237Z,64.00
2022-07-27T13:43:25.575Z,64.30
2022-07-27T13:45:54.095Z,64.40
2022-07-27T13:48:22.437Z,64.50
2022-07-27T13:50:52.822Z,64.00
2022-07-27T13:53:21.192Z,63.00
2022-07-27T13:55:49.800Z,63.80
2022-07-27T13:58:18.231Z,63.00
2022-07-27T14:00:46.859Z,63.60
2022-07-27T14:03:15.441Z,63.10
2022-07-27T14:05:49.169Z,63.40
2022-07-27T14:08:22.141Z,64.10
2022-07-27T14:10:51.948Z,64.30
2022-07-27T14:13:25.916Z,64.10
2022-07-27T14:15:55.834Z,64.00
2022-07-27T14:18:26.031Z,63.50
2022-07-27T14:20:55.044Z,64.10
2022-07-27T14:23:36.312Z,62.90
2022-07-27T14:26:08.003Z,62.50
2022-07-27T14:28:39.348Z,62.80
2022-07-27T14:31:09.770Z,62.90
2022-07-27T14:33:38.744Z,62.80
2022-07-27T14:36:09.262Z,63.10
2022-07-27T14:38:39.484Z,63.00
2022-07-27T14:41:08.146Z,63.50
2022-07-27T14:43:37.177Z,63.50
2022-07-27T14:46:05.317Z,64.10
2022-07-27T14:49:05.755Z,64.50
2022-07-27T14:51:22.321Z,64.70
2022-07-27T14:53:52.980Z,64.30
2022-07-27T14:56:23.094Z,63.90
2022-07-27T14:58:51.349Z,63.80
2022-07-27T15:01:19.852Z,63.60
2022-07-27T15:03:48.176Z,63.20
2022-07-27T15:06:17.438Z,63.10
2022-07-27T15:08:45.601Z,62.60
2022-07-27T15:11:16.972Z,62.90
2022-07-27T15:13:45.090Z,62.90
2022-07-27T15:16:14.933Z,63.00
2022-07-27T15:18:43.124Z,61.60
2022-07-27T15:21:14.773Z,61.50
2022-07-27T15:23:44.372Z,62.00
2022-07-27T15:26:13.313Z,61.90
2022-07-27T15:28:45.844Z,61.20
2022-07-27T15:31:14.604Z,61.20
2022-07-27T15:33:43.434Z,61.30
2022-07-27T15:36:31.329Z,61.20
2022-07-27T15:39:00.136Z,60.60
2022-07-27T15:41:30.908Z,59.90
2022-07-27T15:44:01.329Z,59.20
2022-07-27T15:46:29.764Z,58.80
2022-07-27T15:48:58.022Z,59.20
2022-07-27T15:51:29.433Z,59.30
2022-07-27T15:53:58.804Z,59.10
2022-07-27T15:56:28.029Z,59.30
2022-07-27T15:58:56.452Z,59.50
2022-07-27T16:01:35.299Z,59.50
2022-07-27T16:04:05.325Z,60.10
2022-07-27T16:06:38.846Z,59.60
2022-07-27T16:09:10.328Z,59.70
2022-07-27T16:11:43.175Z,59.50
2022-07-27T16:14:11.727Z,59.00
2022-07-27T16:16:41.405Z,59.20
2022-07-27T16:19:14.082Z,59.80
2022-07-27T16:21:53.610Z,59.40
2022-07-27T16:24:27.668Z,59.20
2022-07-27T16:26:57.337Z,58.90
2022-07-27T16:29:27.437Z,58.70
2022-07-27T16:31:59.209Z,58.70
2022-07-27T16:34:28.437Z,58.70
2022-07-27T16:36:57.062Z,58.90
2022-07-27T16:39:26.764Z,58.90
2022-07-27T16:41:55.570Z,59.10
2022-07-27T16:44:24.040Z,58.90
2022-07-27T16:46:53.216Z,58.90
2022-07-27T16:49:36.079Z,58.90
2022-07-27T16:52:05.809Z,58.90
2022-07-27T16:54:38.799Z,58.80
2022-07-27T16:57:08.179Z,58.70
2022-07-27T16:59:39.136Z,58.70
2022-07-27T17:02:07.820Z,58.60
2022-07-27T17:04:38.083Z,58.50
2022-07-27T17:07:06.651Z,58.50
2022-07-27T17:09:41.273Z,58.90
2022-07-27T17:12:09.862Z,59.30
2022-07-27T17:14:39.613Z,59.20
2022-07-27T17:17:08.063Z,59.20
2022-07-27T17:19:41.289Z,59.00
2022-07-27T17:22:12.352Z,59.00
2022-07-27T17:24:40.819Z,59.20
2022-07-27T17:27:09.181Z,59.10
2022-07-27T17:29:37.591Z,59.30
2022-07-27T17:32:05.998Z,59.50
2022-07-27T17:34:34.646Z,59.40
2022-07-27T17:37:06.316Z,59.60
2022-07-27T17:39:35.490Z,59.70
2022-07-27T17:42:06.418Z,59.40
2022-07-27T17:44:38.775Z,59.60
2022-07-27T17:47:07.315Z,59.70
2022-07-27T17:49:35.999Z,60.00
2022-07-27T17:52:06.975Z,60.20
2022-07-27T17:54:35.627Z,59.80
2022-07-27T17:57:04.351Z,59.90
2022-07-27T17:59:37.900Z,59.60
2022-07-27T18:02:08.057Z,59.70
2022-07-27T18:04:39.409Z,59.80
2022-07-27T18:07:09.329Z,60.10
2022-07-27T18:09:38.086Z,60.30
2022-07-27T18:12:07.535Z,60.30
2022-07-27T18:14:39.756Z,60.80
2022-07-27T18:17:08.990Z,61.10
2022-07-27T18:19:37.183Z,60.80
2022-07-27T18:22:05.814Z,61.00
2022-07-27T18:24:35.864Z,60.80
2022-07-27T18:27:06.397Z,61.00
2022-07-27T18:29:34.766Z,61.70
2022-07-27T18:32:02.987Z,61.10
2022-07-27T18:34:32.778Z,60.80
2022-07-27T18:37:01.384Z,61.10
2022-07-27T18:39:33.695Z,61.20
2022-07-27T18:42:05.164Z,61.50
2022-07-27T18:44:38.427Z,62.10
2022-07-27T18:47:07.588Z,62.10
2022-07-27T18:49:36.320Z,62.20
2022-07-27T18:52:05.168Z,62.30
2022-07-27T18:54:35.155Z,62.30
2022-07-27T18:57:07.330Z,62.30
2022-07-27T18:59:40.914Z,62.50
2022-07-27T19:02:10.225Z,62.20
2022-07-27T19:04:39.272Z,62.20
2022-07-27T19:07:10.596Z,62.20
2022-07-27T19:09:42.358Z,62.30
2022-07-27T19:12:12.683Z,62.70
2022-07-27T19:14:44.324Z,62.60
2022-07-27T19:17:19.691Z,62.70
2022-07-27T19:19:48.813Z,62.90
2022-07-27T19:22:17.523Z,63.00
2022-07-27T19:24:50.209Z,63.20
2022-07-27T19:27:24.238Z,63.50
2022-07-27T19:29:54.718Z,63.80
2022-07-27T19:32:28.950Z,63.90
2022-07-27T19:34:57.207Z,64.10
2022-07-27T19:37:29.721Z,64.50
2022-07-27T19:40:14.293Z,64.20
2022-07-27T19:42:48.534Z,64.50
2022-07-27T19:45:19.259Z,64.50
2022-07-27T19:47:54.156Z,64.90
2022-07-27T19:50:24.954Z,64.80
2022-07-27T19:52:54.514Z,64.90
2022-07-27T19:55:23.370Z,65.30
2022-07-27T19:57:53.540Z,65.10
2022-07-27T20:00:25.706Z,65.10
2022-07-27T20:02:58.910Z,65.20
2022-07-27T20:05:27.478Z,65.50
2022-07-27T20:07:55.576Z,65.80
2022-07-27T20:10:25.467Z,66.00
2022-07-27T20:12:55.050Z,66.20
2022-07-27T20:15:23.473Z,66.60
2022-07-27T20:17:51.770Z,66.50
2022-07-27T20:20:20.753Z,66.70
2022-07-27T20:22:49.575Z,66.80
2022-07-27T20:25:20.868Z,66.70
2022-07-27T20:27:59.230Z,67.00
2022-07-27T20:30:30.791Z,67.20
2022-07-27T20:32:59.145Z,67.20
2022-07-27T20:35:30.934Z,67.20
2022-07-27T20:38:11.606Z,67.30
2022-07-27T20:40:39.924Z,67.70
2022-07-27T20:43:10.491Z,67.80
2022-07-27T20:45:39.832Z,67.70
2022-07-27T20:48:10.606Z,67.80
2022-07-27T20:50:38.782Z,68.30
2022-07-27T20:53:10.098Z,68.30
2022-07-27T20:55:38.407Z,68.40
2022-07-27T20:58:06.835Z,68.30
2022-07-27T21:00:37.807Z,68.60
2022-07-27T21:03:06.919Z,68.90
2022-07-27T21:05:35.788Z,68.90
2022-07-27T21:08:07.163Z,69.20
2022-07-27T21:10:38.192Z,69.30
2022-07-27T21:13:07.131Z,69.40
2022-07-27T21:15:37.416Z,69.50
2022-07-27T21:18:06.405Z,69.30
2022-07-27T21:20:34.697Z,69.20
2022-07-27T21:23:22.342Z,69.20
2022-07-27T21:26:15.579Z,69.50
2022-07-27T21:28:55.048Z,69.60
2022-07-27T21:31:39.182Z,69.60
2022-07-27T21:34:12.242Z,69.30
2022-07-27T21:36:41.343Z,69.80
2022-07-27T21:39:12.833Z,69.50
2022-07-27T21:41:44.661Z,69.50
2022-07-27T21:44:22.604Z,69.50
2022-07-27T21:46:54.421Z,69.90
2022-07-27T21:49:29.891Z,69.60
2022-07-27T21:52:09.480Z,69.50
2022-07-27T21:54:39.954Z,69.90
2022-07-27T21:57:10.578Z,69.90
2022-07-27T21:59:41.478Z,70.10
2022-07-27T22:02:18.390Z,70.00
2022-07-27T22:04:46.954Z,70.00
2022-07-27T22:07:19.279Z,70.00
2022-07-27T22:09:50.099Z,70.10
2022-07-27T22:12:19.687Z,70.30
2022-07-27T22:14:49.823Z,70.30
2022-07-27T22:17:23.460Z,70.20
2022-07-27T22:19:51.784Z,70.20
2022-07-27T22:22:24.715Z,70.20
2022-07-27T22:24:53.561Z,70.20
2022-07-27T22:27:23.904Z,70.50
2022-07-27T22:29:52.148Z,70.30
2022-07-27T22:32:23.021Z,70.50
2022-07-27T22:34:53.458Z,70.50
2022-07-27T22:37:26.564Z,70.00
2022-07-27T22:39:58.014Z,70.50
2022-07-27T22:42:26.856Z,70.80
2022-07-27T22:44:55.992Z,70.70
2022-07-27T22:47:25.922Z,70.70
2022-07-27T22:49:54.314Z,71.00
2022-07-27T22:52:24.918Z,71.00
2022-07-27T22:54:53.387Z,71.30
2022-07-27T22:57:25.656Z,70.80
2022-07-27T22:59:54.302Z,71.00
2022-07-27T23:02:23.068Z,71.00
2022-07-27T23:04:56.380Z,70.60
2022-07-27T23:07:26.080Z,72.00
2022-07-27T23:09:57.081Z,71.30
2022-07-27T23:12:26.238Z,71.40
2022-07-27T23:14:55.650Z,71.30
2022-07-27T23:17:24.365Z,71.20
2022-07-27T23:19:56.701Z,71.20
2022-07-27T23:22:25.143Z,71.20
2022-07-27T23:24:53.683Z,71.60
2022-07-27T23:27:22.207Z,71.40
2022-07-27T23:29:50.447Z,71.50
2022-07-27T23:32:18.576Z,71.50
2022-07-27T23:34:47.313Z,71.40
2022-07-27T23:37:17.139Z,72.10
2022-07-27T23:39:45.538Z,72.20
2022-07-27T23:42:22.338Z,72.30
2022-07-27T23:44:51.090Z,72.60
2022-07-27T23:47:21.393Z,72.60
2022-07-27T23:49:49.916Z,72.40
2022-07-27T23:52:19.761Z,72.20
2022-07-27T23:54:48.420Z,72.60
2022-07-27T23:57:16.991Z,72.70
2022-07-27T23:59:45.526Z,73.00
